createdAt,value
2019-02-22T00:02:25.738Z,99410.41
2019-02-22T00:04:56.008Z,99414.23
2019-02-22T00:07:26.198Z,99408.29
2019-02-22T00:09:56.753Z,99409.06
2019-02-22T00:12:27.250Z,99412.06
2019-02-22T00:14:57.552Z,99413.41
2019-02-22T00:17:27.807Z,99404.20
2019-02-22T00:19:58.194Z,99407.41
2019-02-22T00:22:28.818Z,99408.23
2019-02-22T00:24:59.118Z,99406.11
2019-02-22T00:27:29.353Z,99399.37
2019-02-22T00:29:59.684Z,99403.41
2019-02-22T00:32:31.009Z,99404.20
2019-02-22T00:35:01.347Z,99401.77
2019-02-22T00:37:32.221Z,99405.41
2019-02-22T00:40:02.403Z,99403.55
2019-02-22T00:42:32.560Z,99403.62
2019-02-22T00:45:02.946Z,99406.93
2019-02-22T00:47:33.246Z,99408.02
2019-02-22T00:50:03.774Z,99404.25
2019-02-22T00:52:34.194Z,99410.50
2019-02-22T00:55:04.552Z,99407.28
2019-02-22T00:57:34.788Z,99406.94
2019-02-22T01:00:05.013Z,99412.33
2019-02-22T01:02:36.000Z,99416.66
2019-02-22T01:05:06.332Z,99410.41
2019-02-22T01:07:36.462Z,99412.58
2019-02-22T01:10:06.916Z,99400.42
2019-02-22T01:12:37.129Z,99406.59
2019-02-22T01:15:07.410Z,99403.33
2019-02-22T01:17:38.162Z,99415.97
2019-02-22T01:20:08.363Z,99411.41
2019-02-22T01:22:38.594Z,99418.13
2019-02-22T01:25:08.994Z,99417.87
2019-02-22T01:27:39.317Z,99411.32
2019-02-22T01:30:10.263Z,99416.44
2019-02-22T01:32:40.552Z,99411.62
2019-02-22T01:35:10.734Z,99411.09
2019-02-22T01:37:40.904Z,99409.23
2019-02-22T01:40:11.009Z,99411.41
2019-02-22T01:42:41.282Z,99401.94
2019-02-22T01:45:11.524Z,99397.30
2019-02-22T01:47:41.654Z,99390.30
2019-02-22T01:50:18.823Z,99390.30
2019-02-22T01:52:48.973Z,99396.20
2019-02-22T01:55:20.007Z,99397.85
2019-02-22T01:57:50.267Z,99400.50
2019-02-22T02:00:20.521Z,99402.89
2019-02-22T02:02:50.963Z,99406.92
2019-02-22T02:05:21.647Z,99409.09
2019-02-22T02:07:51.967Z,99411.78
2019-02-22T02:10:22.223Z,99417.22
2019-02-22T02:12:52.660Z,99407.22
2019-02-22T02:15:22.790Z,99408.84
2019-02-22T02:17:52.918Z,99416.44
2019-02-22T02:20:23.119Z,99420.52
2019-02-22T02:22:53.332Z,99423.52
2019-02-22T02:25:23.529Z,99426.51
2019-02-22T02:27:53.706Z,99429.37
2019-02-22T02:30:24.071Z,99421.00
2019-02-22T02:32:54.700Z,99421.81
2019-02-22T02:35:25.015Z,99427.16
2019-02-22T02:37:55.296Z,99421.25
2019-02-22T02:40:25.611Z,99420.95
2019-02-22T02:42:55.718Z,99426.33
2019-02-22T02:45:26.044Z,99432.79
2019-02-22T02:47:56.279Z,99436.63
2019-02-22T02:50:26.480Z,99428.02
2019-02-22T02:52:56.674Z,99439.56
2019-02-22T02:55:32.299Z,99427.16
2019-02-22T02:58:02.689Z,99435.53
2019-02-22T03:00:32.957Z,99437.92
2019-02-22T03:03:03.118Z,99442.84
2019-02-22T03:05:47.845Z,99436.89
2019-02-22T03:08:18.137Z,99440.92
2019-02-22T03:10:48.384Z,99449.56
2019-02-22T03:13:18.767Z,99445.35
2019-02-22T03:15:49.039Z,99445.58
2019-02-22T03:18:19.738Z,99450.34
2019-02-22T03:20:50.104Z,99449.87
2019-02-22T03:23:20.362Z,99448.83
2019-02-22T03:25:50.860Z,99455.30
2019-02-22T03:28:21.394Z,99449.66
2019-02-22T03:30:51.869Z,99451.30
2019-02-22T03:33:22.028Z,99452.44
2019-02-22T03:35:52.361Z,99457.69
2019-02-22T03:38:22.690Z,99453.91
2019-02-22T03:40:52.848Z,99458.98
2019-02-22T03:43:23.034Z,99463.33
2019-02-22T03:45:53.220Z,99465.77
2019-02-22T03:48:23.374Z,99463.07
2019-02-22T03:50:53.527Z,99463.62
2019-02-22T03:53:42.844Z,99453.91
2019-02-22T03:56:13.285Z,99461.25
2019-02-22T03:58:43.675Z,99466.33
2019-02-22T04:01:13.893Z,99465.81
2019-02-22T04:03:44.140Z,99463.39
2019-02-22T04:06:14.313Z,99463.74
2019-02-22T04:08:44.429Z,99468.57
2019-02-22T04:11:14.650Z,99469.90
2019-02-22T04:13:44.902Z,99470.47
2019-02-22T04:16:15.055Z,99471.09
2019-02-22T04:18:45.175Z,99475.14
2019-02-22T04:21:15.518Z,99469.01
2019-02-22T04:23:45.693Z,99470.67
2019-02-22T04:26:15.938Z,99474.80
2019-02-22T04:28:46.168Z,99474.80
2019-02-22T04:31:16.424Z,99479.88
2019-02-22T04:33:46.619Z,99473.45
2019-02-22T04:36:16.807Z,99486.92
2019-02-22T04:38:46.925Z,99484.23
2019-02-22T04:41:17.052Z,99495.30
2019-02-22T04:43:47.215Z,99500.38
2019-02-22T04:46:18.318Z,99500.89
2019-02-22T04:48:48.565Z,99505.77
2019-02-22T04:51:18.746Z,99507.33
2019-02-22T04:53:48.990Z,99507.33
2019-02-22T04:56:19.149Z,99511.66
2019-02-22T04:58:49.341Z,99514.14
2019-02-22T05:01:19.614Z,99517.41
2019-02-22T05:03:49.826Z,99516.93
2019-02-22T05:06:20.141Z,99519.89
2019-02-22T05:08:51.247Z,99516.98
2019-02-22T05:11:21.600Z,99517.50
2019-02-22T05:13:52.014Z,99514.51
2019-02-22T05:16:22.489Z,99513.73
2019-02-22T05:18:52.867Z,99513.73
2019-02-22T05:21:23.177Z,99518.34
2019-02-22T05:23:53.537Z,99518.02
2019-02-22T05:26:23.770Z,99521.18
2019-02-22T05:28:53.956Z,99514.83
2019-02-22T05:31:24.500Z,99516.22
2019-02-22T05:33:54.825Z,99516.27
2019-02-22T05:36:25.163Z,99519.53
2019-02-22T05:38:55.491Z,99520.63
2019-02-22T05:41:25.650Z,99516.06
2019-02-22T05:43:55.823Z,99524.44
2019-02-22T05:46:26.152Z,99524.44
2019-02-22T05:48:56.570Z,99529.62
2019-02-22T05:51:27.048Z,99537.97
2019-02-22T05:53:57.377Z,99537.70
2019-02-22T05:56:27.690Z,99546.34
2019-02-22T05:58:57.901Z,99554.69
2019-02-22T06:01:28.335Z,99554.99
2019-02-22T06:03:58.740Z,99557.69
2019-02-22T06:06:29.148Z,99562.59
2019-02-22T06:08:59.725Z,99563.44
2019-02-22T06:11:29.921Z,99564.00
2019-02-22T06:14:00.869Z,99565.65
2019-02-22T06:16:31.166Z,99563.23
2019-02-22T06:19:01.595Z,99562.18
2019-02-22T06:21:31.798Z,99572.08
2019-02-22T06:24:02.872Z,99562.66
2019-02-22T06:26:33.373Z,99563.69
2019-02-22T06:29:03.909Z,99570.17
2019-02-22T06:31:34.414Z,99581.03
2019-02-22T06:34:04.561Z,99577.31
2019-02-22T06:36:35.120Z,99587.56
2019-02-22T06:39:06.854Z,99590.78
2019-02-22T06:41:37.027Z,99597.09
2019-02-22T06:44:07.351Z,99595.44
2019-02-22T06:46:37.802Z,99606.82
2019-02-22T06:49:08.020Z,99600.93
2019-02-22T06:51:38.227Z,99602.58
2019-02-22T06:54:08.402Z,99603.41
2019-02-22T06:56:38.589Z,99607.49
2019-02-22T06:59:08.837Z,99606.71
2019-02-22T07:01:39.561Z,99603.52
2019-02-22T07:04:09.846Z,99612.47
2019-02-22T07:06:40.291Z,99616.20
2019-02-22T07:09:11.239Z,99618.90
2019-02-22T07:12:00.680Z,99618.90
2019-02-22T07:14:31.054Z,99623.52
2019-02-22T07:17:02.577Z,99622.67
2019-02-22T07:19:32.741Z,99622.98
2019-02-22T07:22:03.298Z,99624.95
2019-02-22T07:24:33.742Z,99623.40
2019-02-22T07:27:03.994Z,99621.98
2019-02-22T07:29:34.330Z,99624.17
2019-02-22T07:32:06.224Z,99635.52
2019-02-22T07:34:36.904Z,99639.36
2019-02-22T07:37:07.159Z,99639.45
2019-02-22T07:39:37.414Z,99646.50
2019-02-22T07:42:07.681Z,99645.14
2019-02-22T07:44:38.411Z,99654.00
2019-02-22T07:47:08.726Z,99653.70
2019-02-22T07:49:38.977Z,99655.66
2019-02-22T07:52:09.347Z,99653.28
2019-02-22T07:54:39.624Z,99657.89
2019-02-22T07:57:10.315Z,99658.98
2019-02-22T07:59:40.735Z,99663.91
2019-02-22T08:02:11.123Z,99654.77
2019-02-22T08:04:41.669Z,99660.42
2019-02-22T08:07:12.453Z,99661.38
2019-02-22T08:09:43.142Z,99677.59
2019-02-22T08:12:13.776Z,99681.47
2019-02-22T08:14:44.051Z,99681.11
2019-02-22T08:17:14.872Z,99682.50
2019-02-22T08:19:45.335Z,99683.77
2019-02-22T08:22:16.191Z,99681.17
2019-02-22T08:24:46.658Z,99685.05
2019-02-22T08:27:17.615Z,99691.92
2019-02-22T08:29:48.667Z,99689.06
2019-02-22T08:32:19.371Z,99687.03
2019-02-22T08:34:50.020Z,99686.90
2019-02-22T08:37:20.354Z,99686.98
2019-02-22T08:39:58.684Z,99687.98
2019-02-22T08:42:23.179Z,99685.55
2019-02-22T08:44:53.716Z,99687.06
2019-02-22T08:47:24.464Z,99689.63
2019-02-22T08:49:55.139Z,99685.22
2019-02-22T08:52:25.792Z,99689.94
2019-02-22T08:54:56.457Z,99687.92
2019-02-22T08:57:27.001Z,99694.36
2019-02-22T08:59:57.326Z,99699.41
2019-02-22T09:02:28.350Z,99702.53
2019-02-22T09:04:58.726Z,99702.06
2019-02-22T09:07:29.589Z,99701.53
2019-02-22T09:09:59.971Z,99697.39
2019-02-22T09:12:30.297Z,99699.86
2019-02-22T09:15:01.152Z,99696.13
2019-02-22T09:17:31.635Z,99702.69
2019-02-22T09:20:02.191Z,99708.85
2019-02-22T09:22:34.541Z,99707.62
2019-02-22T09:25:05.173Z,99712.82
2019-02-22T09:27:35.957Z,99715.32
2019-02-22T09:30:08.217Z,99719.78
2019-02-22T09:32:38.689Z,99717.71
2019-02-22T09:35:10.155Z,99719.03
2019-02-22T09:37:40.699Z,99719.11
2019-02-22T09:40:14.541Z,99721.63
2019-02-22T09:42:44.139Z,99718.13
2019-02-22T09:45:17.429Z,99713.56
2019-02-22T09:47:48.301Z,99719.78
2019-02-22T09:50:18.721Z,99726.09
2019-02-22T09:52:48.975Z,99729.73
2019-02-22T09:55:19.165Z,99727.11
2019-02-22T09:57:49.410Z,99734.78
2019-02-22T10:00:19.680Z,99726.09
2019-02-22T10:02:50.230Z,99739.48
2019-02-22T10:05:20.738Z,99729.50
2019-02-22T10:07:51.070Z,99736.05
2019-02-22T10:10:21.337Z,99742.00
2019-02-22T10:12:51.640Z,99746.91
2019-02-22T10:15:22.270Z,99750.17
2019-02-22T10:17:52.759Z,99752.95
2019-02-22T10:20:23.084Z,99755.09
2019-02-22T10:22:53.323Z,99756.69
2019-02-22T10:25:23.523Z,99760.50
2019-02-22T10:27:53.825Z,99765.85
2019-02-22T10:30:24.497Z,99767.20
2019-02-22T10:32:54.701Z,99764.25
2019-02-22T10:35:24.979Z,99769.44
2019-02-22T10:37:55.326Z,99774.40
2019-02-22T10:40:25.717Z,99773.64
2019-02-22T10:42:55.977Z,99779.94
2019-02-22T10:45:26.522Z,99772.38
2019-02-22T10:47:57.173Z,99772.42
2019-02-22T10:50:27.558Z,99784.34
2019-02-22T10:53:02.232Z,99782.19
2019-02-22T10:55:30.305Z,99774.48
2019-02-22T10:58:00.629Z,99771.48
2019-02-22T11:00:31.057Z,99774.83
2019-02-22T11:03:01.311Z,99771.06
2019-02-22T11:05:31.483Z,99771.31
2019-02-22T11:08:01.842Z,99765.02
2019-02-22T11:10:32.299Z,99764.08
2019-02-22T11:13:02.745Z,99767.09
2019-02-22T11:15:33.232Z,99769.58
2019-02-22T11:18:03.429Z,99778.11
2019-02-22T11:20:33.627Z,99765.88
2019-02-22T11:23:03.911Z,99769.69
2019-02-22T11:25:34.132Z,99773.78
2019-02-22T11:28:04.399Z,99768.08
2019-02-22T11:30:35.176Z,99768.06
2019-02-22T11:33:05.413Z,99758.84
2019-02-22T11:35:35.822Z,99762.34
2019-02-22T11:38:06.176Z,99763.66
2019-02-22T11:40:38.063Z,99759.48
2019-02-22T11:43:09.069Z,99759.55
2019-02-22T11:45:39.579Z,99754.84
2019-02-22T11:48:10.266Z,99759.96
2019-02-22T11:50:40.764Z,99761.45
2019-02-22T11:53:10.926Z,99760.89
2019-02-22T11:55:41.221Z,99767.14
2019-02-22T11:58:11.447Z,99762.44
2019-02-22T12:00:41.830Z,99757.59
2019-02-22T12:03:24.387Z,99766.09
2019-02-22T12:05:44.737Z,99780.06
2019-02-22T12:08:15.341Z,99775.99
2019-02-22T12:10:45.756Z,99779.50
2019-02-22T12:13:17.285Z,99776.36
2019-02-22T12:15:47.862Z,99776.23
2019-02-22T12:18:19.697Z,99782.39
2019-02-22T12:20:51.240Z,99778.53
2019-02-22T12:23:21.874Z,99778.02
2019-02-22T12:25:52.360Z,99780.83
2019-02-22T12:28:22.725Z,99780.83
2019-02-22T12:30:52.907Z,99774.56
2019-02-22T12:33:23.135Z,99781.53
2019-02-22T12:35:53.405Z,99783.56
2019-02-22T12:38:24.204Z,99775.29
2019-02-22T12:40:54.521Z,99778.73
2019-02-22T12:43:24.852Z,99784.75
2019-02-22T12:45:56.419Z,99786.72
2019-02-22T12:48:27.149Z,99796.69
2019-02-22T12:50:57.366Z,99801.64
2019-02-22T12:53:28.122Z,99797.20
2019-02-22T12:55:58.389Z,99803.73
2019-02-22T12:58:28.852Z,99804.27
2019-02-22T13:00:59.539Z,99814.46
2019-02-22T13:03:30.283Z,99809.25
2019-02-22T13:06:01.481Z,99803.78
2019-02-22T13:08:32.000Z,99811.98
2019-02-22T13:11:02.623Z,99801.02
2019-02-22T13:13:33.300Z,99806.81
2019-02-22T13:16:03.933Z,99807.91
2019-02-22T13:18:36.745Z,99808.80
2019-02-22T13:21:07.316Z,99807.36
2019-02-22T13:23:37.786Z,99809.50
2019-02-22T13:26:08.354Z,99802.92
2019-02-22T13:28:39.139Z,99808.09
2019-02-22T13:31:10.768Z,99801.57
2019-02-22T13:33:41.547Z,99807.84
2019-02-22T13:36:12.364Z,99810.05
2019-02-22T13:38:42.884Z,99811.95
2019-02-22T13:41:13.440Z,99812.88
2019-02-22T13:43:43.935Z,99819.03
2019-02-22T13:46:14.517Z,99818.37
2019-02-22T13:48:45.598Z,99817.89
2019-02-22T13:51:16.161Z,99819.88
2019-02-22T13:53:46.831Z,99816.34
2019-02-22T13:56:28.886Z,99815.88
2019-02-22T13:58:49.376Z,99823.48
2019-02-22T14:01:20.116Z,99828.10
2019-02-22T14:03:50.636Z,99828.89
2019-02-22T14:06:21.406Z,99829.65
2019-02-22T14:08:51.914Z,99833.47
2019-02-22T14:11:22.445Z,99827.17
2019-02-22T14:13:53.229Z,99829.35
2019-02-22T14:16:23.592Z,99830.13
2019-02-22T14:18:54.087Z,99830.70
2019-02-22T14:21:24.909Z,99837.51
2019-02-22T14:23:55.623Z,99836.97
2019-02-22T14:26:26.311Z,99839.41
2019-02-22T14:28:57.127Z,99840.64
2019-02-22T14:31:27.558Z,99841.17
2019-02-22T14:33:57.909Z,99846.90
2019-02-22T14:36:29.498Z,99843.66
2019-02-22T14:39:00.422Z,99834.90
2019-02-22T14:41:31.616Z,99841.52
2019-02-22T14:44:02.347Z,99835.09
2019-02-22T14:46:33.063Z,99840.91
2019-02-22T14:49:03.701Z,99840.55
2019-02-22T14:51:34.282Z,99846.31
2019-02-22T14:54:05.093Z,99842.02
2019-02-22T14:56:35.627Z,99835.98
2019-02-22T14:59:06.361Z,99835.33
2019-02-22T15:01:37.249Z,99838.19
2019-02-22T15:04:07.897Z,99845.15
2019-02-22T15:06:40.303Z,99839.95
2019-02-22T15:09:10.976Z,99845.19
2019-02-22T15:11:41.632Z,99837.47
2019-02-22T15:14:12.245Z,99843.95
2019-02-22T15:17:00.526Z,99841.74
2019-02-22T15:19:30.887Z,99839.73
2019-02-22T15:22:01.574Z,99845.30
2019-02-22T15:24:33.060Z,99839.30
2019-02-22T15:27:03.962Z,99835.59
2019-02-22T15:29:34.554Z,99843.76
2019-02-22T15:32:05.376Z,99840.97
2019-02-22T15:34:35.872Z,99840.89
2019-02-22T15:37:06.808Z,99845.42
2019-02-22T15:39:37.628Z,99846.79
2019-02-22T15:42:08.178Z,99841.83
2019-02-22T15:44:38.743Z,99842.98
2019-02-22T15:47:12.121Z,99850.98
2019-02-22T15:49:41.865Z,99847.59
2019-02-22T15:52:12.208Z,99849.70
2019-02-22T15:54:42.720Z,99845.19
2019-02-22T15:57:13.156Z,99848.14
2019-02-22T15:59:43.628Z,99846.44
2019-02-22T16:02:14.511Z,99844.28
2019-02-22T16:05:04.170Z,99850.05
2019-02-22T16:07:44.280Z,99844.64
2019-02-22T16:10:07.076Z,99854.21
2019-02-22T16:12:39.438Z,99852.80
2019-02-22T16:15:10.518Z,99859.59
2019-02-22T16:17:41.870Z,99861.22
2019-02-22T16:20:12.355Z,99856.02
2019-02-22T16:22:42.875Z,99863.57
2019-02-22T16:25:19.639Z,99862.41
2019-02-22T16:27:45.731Z,99866.19
2019-02-22T16:30:17.826Z,99868.79
2019-02-22T16:32:48.363Z,99876.49
2019-02-22T16:35:19.138Z,99878.64
2019-02-22T16:37:49.424Z,99880.00
2019-02-22T16:40:19.997Z,99880.00
2019-02-22T16:42:50.571Z,99878.87
2019-02-22T16:45:21.201Z,99875.59
2019-02-22T16:47:51.684Z,99874.20
2019-02-22T16:50:22.042Z,99875.53
2019-02-22T16:52:52.750Z,99880.02
2019-02-22T16:55:23.088Z,99884.03
2019-02-22T16:57:53.509Z,99892.67
2019-02-22T17:00:24.305Z,99887.02
2019-02-22T17:02:54.772Z,99887.02
2019-02-22T17:05:25.318Z,99884.52
2019-02-22T17:07:55.858Z,99883.38
2019-02-22T17:10:26.201Z,99885.77
2019-02-22T17:12:56.522Z,99891.16
2019-02-22T17:15:26.777Z,99897.91
2019-02-22T17:17:57.312Z,99895.99
2019-02-22T17:20:27.877Z,99892.38
2019-02-22T17:22:58.148Z,99897.97
2019-02-22T17:25:28.776Z,99894.84
2019-02-22T17:27:59.349Z,99898.21
2019-02-22T17:30:30.096Z,99903.91
2019-02-22T17:33:00.703Z,99904.17
2019-02-22T17:35:32.188Z,99907.95
2019-02-22T17:38:02.498Z,99913.15
2019-02-22T17:40:36.911Z,99914.89
2019-02-22T17:43:07.300Z,99922.23
2019-02-22T17:45:39.348Z,99920.14
2019-02-22T17:48:09.919Z,99927.78
2019-02-22T17:50:40.644Z,99917.35
2019-02-22T17:53:11.224Z,99924.37
2019-02-22T17:55:41.680Z,99925.08
2019-02-22T17:58:12.481Z,99931.09
2019-02-22T18:00:43.051Z,99929.03
2019-02-22T18:03:13.484Z,99927.58
2019-02-22T18:05:43.871Z,99929.12
2019-02-22T18:08:14.136Z,99935.62
2019-02-22T18:10:44.549Z,99937.27
2019-02-22T18:13:15.921Z,99934.06
2019-02-22T18:15:46.659Z,99939.03
2019-02-22T18:18:17.169Z,99939.84
2019-02-22T18:20:47.521Z,99931.64
2019-02-22T18:23:18.181Z,99935.58
2019-02-22T18:25:48.558Z,99938.44
2019-02-22T18:28:18.973Z,99938.48
2019-02-22T18:30:50.978Z,99936.77
2019-02-22T18:33:21.314Z,99942.08
2019-02-22T18:35:52.007Z,99939.04
2019-02-22T18:38:22.544Z,99933.48
2019-02-22T18:40:52.847Z,99937.54
2019-02-22T18:43:23.832Z,99934.59
2019-02-22T18:45:54.272Z,99948.48
2019-02-22T18:48:24.849Z,99946.25
2019-02-22T18:50:55.231Z,99952.94
2019-02-22T18:53:25.712Z,99945.32
2019-02-22T18:55:56.267Z,99957.28
2019-02-22T18:58:27.227Z,99952.73
2019-02-22T19:00:57.875Z,99958.69
2019-02-22T19:03:28.551Z,99959.55
2019-02-22T19:05:58.844Z,99964.16
2019-02-22T19:08:32.336Z,99962.87
2019-02-22T19:11:01.748Z,99958.69
2019-02-22T19:13:32.108Z,99959.04
2019-02-22T19:16:02.427Z,99961.72
2019-02-22T19:18:33.079Z,99965.37
2019-02-22T19:21:03.923Z,99952.23
2019-02-22T19:23:34.798Z,99962.83
2019-02-22T19:26:07.168Z,99958.58
2019-02-22T19:28:37.740Z,99960.10
2019-02-22T19:31:09.937Z,99957.23
2019-02-22T19:33:40.396Z,99965.42
2019-02-22T19:36:11.000Z,99975.81
2019-02-22T19:38:41.347Z,99975.16
2019-02-22T19:41:12.168Z,99971.81
2019-02-22T19:44:03.005Z,99973.34
2019-02-22T19:46:33.890Z,99978.64
2019-02-22T19:49:05.106Z,99967.64
2019-02-22T19:51:35.548Z,99971.28
2019-02-22T19:54:06.578Z,99977.56
2019-02-22T19:56:37.612Z,99983.52
2019-02-22T19:59:08.393Z,99972.92
2019-02-22T20:01:39.228Z,99976.67
2019-02-22T20:04:09.873Z,99978.55
2019-02-22T20:06:41.078Z,99981.02
2019-02-22T20:09:11.883Z,99986.49
2019-02-22T20:11:42.787Z,99983.86
2019-02-22T20:14:13.440Z,99982.02
2019-02-22T20:16:44.250Z,99982.53
2019-02-22T20:19:15.382Z,99984.59
2019-02-22T20:21:46.343Z,99983.77
2019-02-22T20:24:17.920Z,99991.40
2019-02-22T20:26:48.932Z,99993.14
2019-02-22T20:29:19.973Z,99999.66
2019-02-22T20:31:50.703Z,100006.02
2019-02-22T20:34:21.477Z,100004.78
2019-02-22T20:36:52.202Z,100006.84
2019-02-22T20:39:22.862Z,100017.03
2019-02-22T20:41:53.934Z,100014.42
2019-02-22T20:44:24.703Z,100018.36
2019-02-22T20:46:55.496Z,100013.30
2019-02-22T20:49:25.808Z,100008.45
2019-02-22T20:51:56.537Z,100007.94
2019-02-22T20:54:26.819Z,100016.77
2019-02-22T20:56:57.692Z,100025.51
2019-02-22T20:59:28.495Z,100017.97
2019-02-22T21:01:59.496Z,100025.15
2019-02-22T21:04:31.175Z,100025.87
2019-02-22T21:07:01.934Z,100025.75
2019-02-22T21:09:32.443Z,100024.94
2019-02-22T21:12:03.289Z,100032.71
2019-02-22T21:14:34.205Z,100036.60
2019-02-22T21:17:05.024Z,100035.72
2019-02-22T21:19:35.710Z,100033.84
2019-02-22T21:22:06.598Z,100033.31
2019-02-22T21:24:37.057Z,100034.12
2019-02-22T21:27:07.788Z,100035.83
2019-02-22T21:29:39.181Z,100038.97
2019-02-22T21:32:09.785Z,100035.38
2019-02-22T21:34:40.296Z,100039.84
2019-02-22T21:37:10.974Z,100035.60
2019-02-22T21:39:41.323Z,100038.15
2019-02-22T21:42:19.832Z,100045.45
2019-02-22T21:44:44.692Z,100046.11
2019-02-22T21:47:15.428Z,100049.56
2019-02-22T21:49:48.090Z,100052.81
2019-02-22T21:52:18.962Z,100050.43
2019-02-22T21:54:49.683Z,100050.76
2019-02-22T21:57:20.292Z,100053.92
2019-02-22T21:59:50.642Z,100048.30
2019-02-22T22:02:21.309Z,100055.67
2019-02-22T22:04:52.076Z,100060.69
2019-02-22T22:07:22.862Z,100063.86
2019-02-22T22:09:53.214Z,100066.09
2019-02-22T22:12:24.178Z,100059.23
2019-02-22T22:14:54.542Z,100054.67
2019-02-22T22:17:25.064Z,100062.11
2019-02-22T22:19:55.590Z,100057.48
2019-02-22T22:22:26.196Z,100062.48
2019-02-22T22:24:56.479Z,100062.92
2019-02-22T22:27:27.140Z,100060.53
2019-02-22T22:29:57.706Z,100052.01
2019-02-22T22:32:28.784Z,100050.73
2019-02-22T22:34:59.175Z,100048.27
2019-02-22T22:37:29.537Z,100046.74
2019-02-22T22:40:00.053Z,100052.20
2019-02-22T22:42:30.731Z,100055.50
2019-02-22T22:45:02.030Z,100049.88
2019-02-22T22:47:33.025Z,100057.17
2019-02-22T22:50:03.468Z,100049.67
2019-02-22T22:52:34.532Z,100041.81
2019-02-22T22:55:05.219Z,100048.98
2019-02-22T22:57:36.066Z,100041.91
2019-02-22T23:00:12.640Z,100047.37
2019-02-22T23:02:43.945Z,100052.50
2019-02-22T23:05:14.336Z,100047.03
2019-02-22T23:07:44.873Z,100050.39
2019-02-22T23:10:15.563Z,100047.86
2019-02-22T23:12:46.325Z,100052.30
2019-02-22T23:15:18.608Z,100058.66
2019-02-22T23:17:48.911Z,100060.91
2019-02-22T23:20:19.340Z,100061.47
2019-02-22T23:22:49.526Z,100063.41
2019-02-22T23:25:19.937Z,100066.27
2019-02-22T23:27:50.708Z,100066.33
2019-02-22T23:30:21.178Z,100058.23
2019-02-22T23:32:51.785Z,100059.48
2019-02-22T23:35:22.159Z,100059.78
2019-02-22T23:37:52.627Z,100060.42
2019-02-22T23:40:22.939Z,100060.95
2019-02-22T23:42:53.199Z,100064.47
2019-02-22T23:45:23.515Z,100059.78
2019-02-22T23:47:54.222Z,100058.31
2019-02-22T23:50:26.174Z,100059.64
2019-02-22T23:52:56.748Z,100065.66
2019-02-22T23:55:27.169Z,100058.47
2019-02-22T23:57:58.068Z,100055.77
